createdAt,value
2018-07-20T00:01:32.110Z,9.90
2018-07-20T00:04:00.500Z,9.03
2018-07-20T00:06:28.896Z,9.20
2018-07-20T00:08:57.253Z,9.83
2018-07-20T00:11:25.623Z,9.50
2018-07-20T00:13:53.965Z,10.10
2018-07-20T00:16:22.357Z,9.83
2018-07-20T00:18:50.775Z,9.40
2018-07-20T00:21:19.168Z,8.93
2018-07-20T00:23:47.548Z,9.97
2018-07-20T00:26:15.872Z,10.67
2018-07-20T00:28:44.506Z,8.57
2018-07-20T00:31:12.873Z,9.70
2018-07-20T00:33:41.192Z,10.20
2018-07-20T00:36:09.533Z,11.07
2018-07-20T00:38:37.871Z,9.13
2018-07-20T00:41:06.193Z,9.00
2018-07-20T00:43:34.557Z,8.90
2018-07-20T00:46:02.938Z,10.20
2018-07-20T00:48:31.427Z,8.87
2018-07-20T00:50:59.776Z,8.47
2018-07-20T00:53:28.090Z,8.80
2018-07-20T00:55:56.453Z,9.90
2018-07-20T00:58:24.849Z,7.80
2018-07-20T01:00:53.178Z,9.00
2018-07-20T01:03:21.548Z,9.33
2018-07-20T01:05:49.879Z,9.40
2018-07-20T01:08:18.259Z,9.23
2018-07-20T01:10:46.566Z,8.43
2018-07-20T01:13:14.884Z,8.53
2018-07-20T01:15:43.242Z,9.20
2018-07-20T01:18:11.577Z,10.07
2018-07-20T01:20:39.954Z,10.10
2018-07-20T01:23:08.426Z,10.10
2018-07-20T01:25:36.758Z,9.67
2018-07-20T01:28:05.135Z,9.97
2018-07-20T01:30:33.473Z,9.70
2018-07-20T01:33:01.869Z,9.20
2018-07-20T01:35:30.206Z,9.57
2018-07-20T01:37:58.529Z,10.27
2018-07-20T01:40:26.934Z,11.07
2018-07-20T01:42:55.256Z,11.20
2018-07-20T01:45:23.557Z,10.20
2018-07-20T01:47:51.888Z,10.00
2018-07-20T01:50:20.277Z,10.20
2018-07-20T01:52:48.629Z,11.40
2018-07-20T01:55:16.935Z,10.43
2018-07-20T01:57:45.252Z,11.80
2018-07-20T02:00:13.602Z,10.67
2018-07-20T02:02:41.969Z,10.90
2018-07-20T02:05:10.320Z,10.50
2018-07-20T02:07:38.629Z,10.73
2018-07-20T02:10:06.957Z,10.83
2018-07-20T02:12:35.302Z,9.77
2018-07-20T02:15:03.638Z,9.50
2018-07-20T02:17:31.988Z,9.30
2018-07-20T02:20:00.309Z,9.83
2018-07-20T02:22:28.680Z,9.37
2018-07-20T02:24:57.029Z,8.17
2018-07-20T02:27:25.331Z,9.47
2018-07-20T02:29:53.651Z,8.27
2018-07-20T02:32:21.998Z,8.30
2018-07-20T02:34:50.313Z,8.30
2018-07-20T02:37:18.630Z,8.33
2018-07-20T02:39:46.959Z,8.37
2018-07-20T02:42:15.313Z,8.37
2018-07-20T02:44:43.609Z,8.40
2018-07-20T02:47:11.974Z,7.70
2018-07-20T02:49:40.500Z,8.43
2018-07-20T02:52:08.845Z,8.50
2018-07-20T02:54:37.158Z,8.73
2018-07-20T02:57:05.521Z,8.47
2018-07-20T02:59:33.866Z,8.33
2018-07-20T03:02:02.188Z,8.17
2018-07-20T03:04:30.546Z,9.10
2018-07-20T03:06:58.900Z,8.73
2018-07-20T03:09:27.206Z,8.73
2018-07-20T03:11:55.522Z,9.17
2018-07-20T03:14:23.889Z,9.53
2018-07-20T03:16:52.230Z,8.40
2018-07-20T03:19:20.787Z,9.57
2018-07-20T03:21:49.093Z,10.40
2018-07-20T03:24:17.425Z,8.50
2018-07-20T03:26:45.910Z,8.00
2018-07-20T03:29:14.318Z,9.07
2018-07-20T03:31:42.676Z,8.90
2018-07-20T03:34:11.029Z,9.60
2018-07-20T03:36:39.366Z,8.57
2018-07-20T03:39:07.869Z,9.07
2018-07-20T03:41:36.899Z,8.83
2018-07-20T03:44:05.224Z,8.93
2018-07-20T03:46:33.556Z,8.43
2018-07-20T03:49:01.919Z,8.70
2018-07-20T03:51:30.197Z,9.30
2018-07-20T03:53:58.489Z,8.63
2018-07-20T03:56:26.966Z,8.60
2018-07-20T03:58:55.253Z,8.10
2018-07-20T04:01:23.585Z,8.90
2018-07-20T04:03:51.914Z,7.97
2018-07-20T04:06:20.342Z,8.13
2018-07-20T04:08:48.725Z,7.43
2018-07-20T04:11:17.102Z,7.90
2018-07-20T04:13:45.419Z,7.20
2018-07-20T04:16:13.759Z,7.70
2018-07-20T04:18:42.081Z,7.90
2018-07-20T04:21:10.550Z,7.90
2018-07-20T04:23:38.904Z,7.53
2018-07-20T04:26:07.210Z,7.60
2018-07-20T04:28:35.531Z,8.20
2018-07-20T04:31:03.848Z,7.80
2018-07-20T04:33:32.206Z,8.10
2018-07-20T04:36:00.545Z,8.60
2018-07-20T04:38:28.831Z,7.90
2018-07-20T04:40:57.140Z,7.57
2018-07-20T04:43:25.560Z,8.00
2018-07-20T04:45:53.897Z,7.40
2018-07-20T04:48:22.208Z,7.47
2018-07-20T04:50:50.543Z,8.00
2018-07-20T04:53:18.854Z,8.30
2018-07-20T04:55:47.199Z,7.43
2018-07-20T04:58:15.524Z,8.50
2018-07-20T05:00:43.872Z,8.73
2018-07-20T05:03:12.237Z,7.77
2018-07-20T05:05:40.576Z,8.87
2018-07-20T05:08:08.896Z,8.30
2018-07-20T05:10:37.276Z,8.70
2018-07-20T05:13:05.607Z,7.87
2018-07-20T05:15:33.907Z,9.03
2018-07-20T05:18:02.260Z,7.80
2018-07-20T05:20:30.580Z,8.17
2018-07-20T05:22:58.911Z,7.40
2018-07-20T05:25:27.254Z,7.47
2018-07-20T05:27:55.621Z,7.80
2018-07-20T05:30:23.956Z,7.33
2018-07-20T05:32:52.292Z,8.43
2018-07-20T05:35:20.613Z,8.53
2018-07-20T05:37:48.996Z,7.80
2018-07-20T05:40:17.274Z,8.13
2018-07-20T05:42:45.375Z,7.40
2018-07-20T05:45:13.749Z,8.27
2018-07-20T05:47:42.112Z,6.87
2018-07-20T05:50:10.191Z,6.77
2018-07-20T05:52:38.555Z,7.20
2018-07-20T05:55:06.938Z,7.20
2018-07-20T05:57:35.257Z,6.90
2018-07-20T06:00:03.677Z,6.43
2018-07-20T06:02:32.064Z,6.97
2018-07-20T06:05:00.397Z,5.80
2018-07-20T06:07:28.744Z,7.13
2018-07-20T06:09:57.052Z,6.57
2018-07-20T06:12:25.405Z,6.47
2018-07-20T06:14:53.750Z,7.00
2018-07-20T06:17:22.081Z,6.40
2018-07-20T06:19:50.437Z,6.30
2018-07-20T06:22:18.812Z,6.50
2018-07-20T06:24:47.144Z,5.80
2018-07-20T06:27:15.501Z,6.10
2018-07-20T06:29:43.849Z,5.43
2018-07-20T06:32:12.316Z,6.10
2018-07-20T06:34:40.721Z,5.97
2018-07-20T06:37:08.809Z,5.40
2018-07-20T06:39:37.183Z,5.50
2018-07-20T06:42:05.540Z,5.50
2018-07-20T06:44:33.867Z,5.90
2018-07-20T06:47:02.201Z,5.30
2018-07-20T06:49:30.970Z,5.00
2018-07-20T06:51:59.312Z,6.00
2018-07-20T06:54:27.689Z,5.20
2018-07-20T06:56:56.034Z,5.00
2018-07-20T06:59:24.365Z,4.87
2018-07-20T07:01:52.719Z,5.50
2018-07-20T07:04:21.077Z,5.53
2018-07-20T07:06:49.437Z,4.80
2018-07-20T07:09:17.831Z,4.70
2018-07-20T07:11:46.149Z,5.27
2018-07-20T07:14:14.551Z,5.13
2018-07-20T07:16:42.851Z,5.13
2018-07-20T07:19:11.199Z,5.23
2018-07-20T07:21:39.581Z,5.77
2018-07-20T07:24:08.036Z,4.50
2018-07-20T07:26:36.383Z,5.30
2018-07-20T07:29:04.719Z,4.40
2018-07-20T07:31:33.232Z,4.53
2018-07-20T07:34:01.654Z,4.83
2018-07-20T07:36:30.059Z,4.40
2018-07-20T07:38:58.426Z,4.30
2018-07-20T07:41:26.821Z,4.70
2018-07-20T07:43:55.206Z,4.63
2018-07-20T07:46:23.597Z,4.47
2018-07-20T07:48:51.923Z,4.63
2018-07-20T07:51:20.293Z,4.80
2018-07-20T07:53:48.702Z,3.87
2018-07-20T07:56:17.062Z,4.90
2018-07-20T07:58:45.450Z,4.50
2018-07-20T08:01:13.803Z,5.00
2018-07-20T08:03:42.142Z,4.40
2018-07-20T08:06:10.451Z,4.77
2018-07-20T08:08:38.878Z,4.40
2018-07-20T08:11:07.289Z,4.73
2018-07-20T08:13:35.622Z,4.83
2018-07-20T08:16:03.960Z,5.00
2018-07-20T08:18:32.317Z,4.53
2018-07-20T08:21:00.732Z,4.80
2018-07-20T08:23:29.090Z,5.03
2018-07-20T08:25:57.498Z,5.23
2018-07-20T08:28:26.012Z,5.07
2018-07-20T08:30:54.415Z,4.53
2018-07-20T08:33:22.849Z,4.90
2018-07-20T08:35:52.080Z,4.90
2018-07-20T08:38:20.437Z,5.60
2018-07-20T08:40:48.827Z,4.67
2018-07-20T08:43:17.204Z,4.90
2018-07-20T08:45:45.546Z,4.90
2018-07-20T08:48:13.896Z,4.87
2018-07-20T08:50:43.294Z,4.87
2018-07-20T08:53:11.728Z,4.87
2018-07-20T08:55:40.057Z,5.50
2018-07-20T08:58:08.427Z,4.90
2018-07-20T09:00:36.788Z,4.93
2018-07-20T09:03:05.165Z,4.73
2018-07-20T09:05:33.576Z,4.87
2018-07-20T09:08:01.941Z,5.00
2018-07-20T09:10:30.284Z,5.20
2018-07-20T09:12:58.674Z,4.80
2018-07-20T09:15:27.045Z,5.47
2018-07-20T09:17:55.408Z,5.07
2018-07-20T09:20:23.775Z,5.47
2018-07-20T09:22:52.174Z,4.67
2018-07-20T09:25:20.285Z,4.90
2018-07-20T09:27:48.681Z,5.20
2018-07-20T09:30:17.074Z,4.93
2018-07-20T09:32:45.409Z,5.07
2018-07-20T09:35:13.773Z,5.80
2018-07-20T09:37:42.216Z,5.50
2018-07-20T09:40:10.559Z,5.70
2018-07-20T09:42:38.889Z,5.17
2018-07-20T09:45:07.288Z,5.00
2018-07-20T09:47:35.649Z,5.10
2018-07-20T09:50:04.559Z,5.47
2018-07-20T09:52:32.868Z,5.13
2018-07-20T09:55:01.254Z,5.77
2018-07-20T09:57:29.719Z,5.57
2018-07-20T09:59:58.199Z,5.30
2018-07-20T10:02:26.757Z,5.37
2018-07-20T10:04:55.509Z,5.23
2018-07-20T10:07:24.088Z,5.43
2018-07-20T10:09:52.401Z,5.33
2018-07-20T10:12:20.750Z,5.80
2018-07-20T10:14:49.215Z,5.40
2018-07-20T10:17:17.596Z,4.53
2018-07-20T10:19:45.956Z,4.57
2018-07-20T10:22:14.352Z,5.20
2018-07-20T10:24:42.803Z,5.70
2018-07-20T10:29:38.754Z,5.30
2018-07-20T10:32:07.199Z,5.17
2018-07-20T10:34:35.701Z,6.10
2018-07-20T10:37:04.095Z,5.50
2018-07-20T10:39:33.625Z,5.27
2018-07-20T10:42:01.993Z,5.97
2018-07-20T10:44:30.411Z,5.70
2018-07-20T10:46:59.495Z,5.33
2018-07-20T10:49:27.851Z,5.37
2018-07-20T10:51:56.215Z,5.00
2018-07-20T10:54:24.589Z,5.60
2018-07-20T10:56:52.918Z,5.70
2018-07-20T10:59:21.268Z,5.53
2018-07-20T11:01:49.604Z,5.10
2018-07-20T11:04:18.002Z,5.40
2018-07-20T11:06:46.431Z,5.73
2018-07-20T11:09:14.768Z,5.20
2018-07-20T11:11:43.096Z,5.00
2018-07-20T11:14:11.678Z,5.73
2018-07-20T11:16:40.051Z,5.63
2018-07-20T11:19:08.396Z,5.60
2018-07-20T11:21:36.741Z,5.37
2018-07-20T11:24:05.133Z,5.20
2018-07-20T11:26:33.561Z,5.10
2018-07-20T11:29:01.944Z,5.33
2018-07-20T11:31:30.276Z,5.20
2018-07-20T11:33:58.638Z,5.17
2018-07-20T11:36:27.039Z,5.30
2018-07-20T11:38:55.358Z,5.97
2018-07-20T11:41:23.715Z,5.50
2018-07-20T11:43:52.101Z,5.90
2018-07-20T11:46:20.452Z,5.37
2018-07-20T11:48:48.842Z,5.93
2018-07-20T11:51:17.222Z,5.93
2018-07-20T11:53:45.614Z,5.30
2018-07-20T11:56:14.013Z,5.10
2018-07-20T11:58:42.358Z,5.03
2018-07-20T12:01:10.850Z,4.93
2018-07-20T12:03:39.234Z,5.33
2018-07-20T12:06:07.319Z,5.00
2018-07-20T12:08:35.666Z,5.07
2018-07-20T12:11:04.001Z,5.90
2018-07-20T12:13:32.348Z,5.67
2018-07-20T12:16:00.420Z,5.00
2018-07-20T12:18:28.771Z,5.10
2018-07-20T12:20:57.088Z,4.30
2018-07-20T12:23:25.446Z,4.60
2018-07-20T12:25:53.879Z,3.90
2018-07-20T12:28:22.247Z,4.50
2018-07-20T12:30:50.578Z,4.70
2018-07-20T12:33:18.914Z,4.80
2018-07-20T12:35:47.335Z,4.60
2018-07-20T12:38:15.712Z,4.53
2018-07-20T12:40:44.101Z,4.40
2018-07-20T12:43:12.541Z,4.67
2018-07-20T12:45:40.880Z,4.57
2018-07-20T12:48:09.266Z,4.80
2018-07-20T12:50:37.739Z,4.40
2018-07-20T12:53:06.090Z,4.60
2018-07-20T12:55:34.604Z,4.33
2018-07-20T12:58:03.145Z,4.80
2018-07-20T13:00:31.511Z,4.07
2018-07-20T13:02:59.900Z,5.20
2018-07-20T13:05:28.302Z,4.50
2018-07-20T13:07:56.781Z,4.23
2018-07-20T13:10:25.136Z,4.37
2018-07-20T13:12:53.621Z,4.47
2018-07-20T13:15:22.001Z,4.40
2018-07-20T13:17:50.432Z,4.80
2018-07-20T13:20:18.780Z,4.60
2018-07-20T13:22:47.201Z,4.70
2018-07-20T13:25:15.549Z,4.53
2018-07-20T13:27:43.971Z,4.63
2018-07-20T13:30:12.318Z,4.53
2018-07-20T13:32:40.756Z,4.47
2018-07-20T13:35:09.166Z,4.67
2018-07-20T13:37:37.647Z,4.60
2018-07-20T13:40:06.842Z,4.73
2018-07-20T13:42:35.236Z,4.57
2018-07-20T13:45:03.660Z,4.27
2018-07-20T13:47:32.084Z,4.77
2018-07-20T13:50:00.476Z,4.57
2018-07-20T13:52:28.846Z,4.80
2018-07-20T13:54:57.172Z,4.57
2018-07-20T13:57:25.577Z,5.00
2018-07-20T13:59:53.954Z,4.57
2018-07-20T14:02:22.321Z,5.00
2018-07-20T14:04:50.726Z,4.60
2018-07-20T14:07:19.128Z,5.23
2018-07-20T14:09:47.534Z,4.87
2018-07-20T14:12:15.952Z,4.57
2018-07-20T14:14:44.361Z,4.87
2018-07-20T14:17:12.728Z,4.80
2018-07-20T14:19:41.053Z,5.00
2018-07-20T14:22:09.689Z,5.10
2018-07-20T14:24:38.123Z,5.07
2018-07-20T14:27:06.568Z,4.90
2018-07-20T14:29:34.931Z,4.33
2018-07-20T14:32:03.395Z,4.60
2018-07-20T14:34:31.828Z,5.30
2018-07-20T14:37:00.253Z,5.00
2018-07-20T14:39:28.297Z,4.87
2018-07-20T14:41:56.734Z,4.83
2018-07-20T14:44:25.117Z,5.13
2018-07-20T14:46:53.520Z,5.13
2018-07-20T14:49:21.871Z,5.00
2018-07-20T14:51:50.241Z,5.00
2018-07-20T14:54:18.793Z,5.20
2018-07-20T14:56:47.157Z,6.10
2018-07-20T14:59:15.521Z,5.80
2018-07-20T15:01:43.926Z,5.20
2018-07-20T15:04:12.277Z,5.30
2018-07-20T15:06:40.622Z,5.43
2018-07-20T15:09:10.873Z,5.60
2018-07-20T15:11:39.228Z,6.00
2018-07-20T15:14:07.576Z,5.60
2018-07-20T15:16:35.885Z,5.23
2018-07-20T15:19:04.235Z,5.50
2018-07-20T15:21:32.597Z,4.90
2018-07-20T15:24:01.047Z,6.07
2018-07-20T15:26:29.455Z,5.17
2018-07-20T15:28:57.778Z,5.87
2018-07-20T15:31:26.161Z,5.10
2018-07-20T15:33:54.515Z,4.80
2018-07-20T15:36:22.837Z,5.63
2018-07-20T15:38:51.210Z,5.23
2018-07-20T15:41:19.561Z,5.13
2018-07-20T15:43:47.993Z,5.40
2018-07-20T15:46:16.477Z,5.73
2018-07-20T15:48:44.825Z,4.80
2018-07-20T15:51:13.237Z,5.70
2018-07-20T15:53:41.624Z,5.60
2018-07-20T15:56:09.936Z,5.43
2018-07-20T15:58:38.309Z,5.30
2018-07-20T16:01:06.798Z,5.57
2018-07-20T16:03:35.133Z,5.37
2018-07-20T16:06:03.576Z,4.93
2018-07-20T16:08:31.898Z,5.53
2018-07-20T16:11:00.318Z,5.57
2018-07-20T16:13:28.853Z,5.17
2018-07-20T16:15:57.192Z,5.50
2018-07-20T16:18:25.554Z,5.20
2018-07-20T16:20:53.947Z,5.80
2018-07-20T16:23:22.306Z,5.27
2018-07-20T16:25:50.713Z,5.10
2018-07-20T16:28:19.065Z,5.50
2018-07-20T16:30:47.420Z,6.00
2018-07-20T16:33:15.771Z,5.70
2018-07-20T16:35:44.206Z,6.27
2018-07-20T16:38:12.666Z,5.73
2018-07-20T16:40:41.037Z,5.17
2018-07-20T16:43:09.416Z,5.90
2018-07-20T16:45:37.820Z,6.23
2018-07-20T16:48:06.153Z,5.87
2018-07-20T16:50:35.019Z,5.07
2018-07-20T16:53:03.427Z,9.03
2018-07-20T16:55:31.763Z,5.23
2018-07-20T16:58:00.120Z,5.10
2018-07-20T17:00:28.477Z,5.70
2018-07-20T17:02:56.861Z,4.90
2018-07-20T17:05:25.202Z,5.20
2018-07-20T17:07:53.614Z,5.53
2018-07-20T17:10:22.039Z,5.13
2018-07-20T17:12:50.405Z,5.00
2018-07-20T17:15:18.827Z,4.80
2018-07-20T17:17:47.165Z,4.90
2018-07-20T17:20:15.530Z,5.40
2018-07-20T17:22:43.967Z,5.97
2018-07-20T17:25:12.299Z,6.00
2018-07-20T17:27:40.653Z,5.70
2018-07-20T17:30:08.991Z,5.13
2018-07-20T17:32:37.361Z,5.50
2018-07-20T17:35:05.772Z,5.90
2018-07-20T17:37:34.140Z,6.10
2018-07-20T17:40:02.529Z,5.93
2018-07-20T17:42:30.925Z,6.00
2018-07-20T17:44:59.362Z,6.10
2018-07-20T17:47:27.749Z,5.77
2018-07-20T17:49:56.177Z,6.13
2018-07-20T17:52:24.604Z,6.10
2018-07-20T17:54:52.936Z,5.87
2018-07-20T17:57:21.283Z,5.90
2018-07-20T17:59:49.401Z,5.97
2018-07-20T18:02:17.770Z,5.80
2018-07-20T18:04:46.173Z,5.83
2018-07-20T18:07:14.886Z,6.20
2018-07-20T18:09:43.246Z,6.13
2018-07-20T18:12:11.681Z,6.40
2018-07-20T18:14:40.036Z,6.20
2018-07-20T18:17:08.122Z,5.50
2018-07-20T18:19:36.482Z,5.90
2018-07-20T18:22:04.993Z,5.93
2018-07-20T18:24:33.343Z,6.00
2018-07-20T18:27:01.724Z,6.03
2018-07-20T18:29:30.160Z,6.07
2018-07-20T18:31:58.524Z,5.70
2018-07-20T18:34:26.902Z,5.90
2018-07-20T18:36:55.290Z,5.60
2018-07-20T18:39:23.734Z,6.43
2018-07-20T18:41:52.063Z,5.93
2018-07-20T18:44:20.464Z,6.40
2018-07-20T18:46:48.892Z,6.17
2018-07-20T18:49:17.288Z,6.13
2018-07-20T18:51:45.662Z,5.60
2018-07-20T18:54:14.059Z,6.20
2018-07-20T18:56:42.139Z,6.03
2018-07-20T18:59:10.488Z,6.33
2018-07-20T19:01:39.104Z,6.10
2018-07-20T19:04:07.471Z,5.73
2018-07-20T19:06:35.879Z,6.20
2018-07-20T19:09:06.231Z,5.80
2018-07-20T19:11:34.630Z,5.60
2018-07-20T19:14:02.991Z,6.10
2018-07-20T19:16:31.332Z,6.20
2018-07-20T19:18:59.865Z,6.57
2018-07-20T19:21:28.248Z,5.73
2018-07-20T19:23:56.707Z,6.57
2018-07-20T19:26:25.122Z,6.27
2018-07-20T19:28:53.476Z,6.47
2018-07-20T19:31:21.869Z,6.57
2018-07-20T19:33:50.246Z,7.00
2018-07-20T19:36:18.889Z,7.13
2018-07-20T19:38:47.245Z,6.70
2018-07-20T19:41:15.657Z,6.83
2018-07-20T19:43:44.037Z,7.07
2018-07-20T19:46:12.398Z,6.63
2018-07-20T19:48:40.750Z,7.00
2018-07-20T19:51:09.100Z,7.13
2018-07-20T19:53:37.672Z,7.80
2018-07-20T19:56:06.033Z,7.20
2018-07-20T19:58:34.345Z,8.17
2018-07-20T20:01:02.712Z,8.70
2018-07-20T20:03:31.069Z,8.30
2018-07-20T20:05:59.452Z,8.17
2018-07-20T20:08:27.881Z,8.70
2018-07-20T20:10:56.261Z,8.50
2018-07-20T20:13:24.714Z,7.53
2018-07-20T20:15:53.115Z,8.47
2018-07-20T20:18:21.521Z,8.60
2018-07-20T20:20:49.910Z,9.57
2018-07-20T20:23:18.284Z,8.50
2018-07-20T20:25:46.683Z,9.70
2018-07-20T20:28:15.118Z,9.30
2018-07-20T20:30:43.519Z,8.87
2018-07-20T20:33:12.006Z,8.83
2018-07-20T20:35:40.749Z,9.20
2018-07-20T20:38:09.168Z,9.10
2018-07-20T20:40:37.564Z,10.23
2018-07-20T20:43:05.946Z,9.20
2018-07-20T20:45:34.384Z,10.23
2018-07-20T20:48:02.762Z,11.17
2018-07-20T20:50:31.156Z,10.83
2018-07-20T20:52:59.530Z,11.23
2018-07-20T20:55:27.866Z,11.50
2018-07-20T20:57:56.213Z,11.33
2018-07-20T21:00:24.573Z,11.43
2018-07-20T21:02:52.973Z,12.60
2018-07-20T21:05:21.349Z,10.90
2018-07-20T21:07:49.735Z,10.27
2018-07-20T21:10:18.157Z,10.90
2018-07-20T21:12:46.207Z,10.93
2018-07-20T21:15:14.558Z,10.67
2018-07-20T21:17:43.228Z,11.23
2018-07-20T21:20:11.611Z,10.27
2018-07-20T21:22:40.101Z,10.70
2018-07-20T21:25:08.510Z,11.17
2018-07-20T21:27:36.937Z,11.33
2018-07-20T21:30:05.470Z,10.80
2018-07-20T21:32:33.805Z,11.70
2018-07-20T21:35:02.185Z,11.40
2018-07-20T21:37:30.658Z,10.83
2018-07-20T21:39:59.072Z,13.20
2018-07-20T21:42:27.420Z,12.67
2018-07-20T21:44:55.803Z,12.17
2018-07-20T21:47:24.177Z,12.80
2018-07-20T21:49:52.527Z,12.07
2018-07-20T21:52:20.972Z,13.07
2018-07-20T21:54:49.326Z,12.83
2018-07-20T21:57:17.699Z,12.87
2018-07-20T21:59:46.044Z,13.33
2018-07-20T22:02:14.369Z,12.23
2018-07-20T22:04:43.069Z,13.10
2018-07-20T22:07:11.628Z,13.27
2018-07-20T22:09:40.027Z,13.70
2018-07-20T22:12:08.372Z,12.60
2018-07-20T22:14:36.758Z,13.93
2018-07-20T22:17:05.148Z,13.17
2018-07-20T22:19:33.543Z,14.10
2018-07-20T22:22:01.978Z,12.30
2018-07-20T22:24:30.312Z,13.20
2018-07-20T22:26:58.638Z,14.37
2018-07-20T22:29:26.979Z,13.53
2018-07-20T22:31:55.328Z,13.10
2018-07-20T22:34:23.671Z,12.80
2018-07-20T22:36:52.048Z,13.73
2018-07-20T22:39:20.431Z,13.90
2018-07-20T22:41:48.785Z,13.97
2018-07-20T22:44:17.127Z,14.67
2018-07-20T22:46:45.529Z,12.93
2018-07-20T22:49:13.845Z,13.93
2018-07-20T22:51:42.337Z,12.90
2018-07-20T22:54:10.396Z,12.57
2018-07-20T22:56:38.795Z,13.40
2018-07-20T22:59:07.165Z,14.20
2018-07-20T23:01:35.507Z,13.50
2018-07-20T23:04:03.836Z,13.40
2018-07-20T23:06:32.206Z,11.90
2018-07-20T23:09:00.266Z,11.67
2018-07-20T23:11:28.329Z,11.43
2018-07-20T23:13:56.422Z,11.07
2018-07-20T23:16:24.823Z,12.53
2018-07-20T23:18:53.135Z,11.80
2018-07-20T23:21:21.444Z,10.83
2018-07-20T23:23:49.821Z,11.53
2018-07-20T23:26:18.137Z,12.50
2018-07-20T23:28:46.437Z,12.20
2018-07-20T23:31:14.753Z,11.37
2018-07-20T23:33:43.102Z,11.47
2018-07-20T23:36:11.666Z,11.17
2018-07-20T23:38:40.001Z,11.53
2018-07-20T23:41:08.351Z,11.67
2018-07-20T23:43:36.680Z,10.90
2018-07-20T23:46:05.008Z,12.87
2018-07-20T23:48:33.473Z,12.97
2018-07-20T23:51:01.779Z,12.07
2018-07-20T23:53:30.183Z,13.30
2018-07-20T23:55:58.524Z,14.57
2018-07-20T23:58:26.850Z,14.07
